Time;durP1;ratioP1;P1;durP2;ratioP2;P2;SDS_P1;SDS_P2;PMS_P1;PMS_P2;Temp;Humidity;BMP_temperature;BMP_pressure;BME280_temperature;BME280_humidity;BME280_pressure;Samples;Min_cycle;Max_cycle;Signal;HPM_P1;HPM_P2
2021/09/01 00:00:32;;;;;;;18.15;5.43;;;16.60;99.90;;;;;;4830734;29;20058;-80
2021/09/01 00:02:57;;;;;;;25.38;5.18;;;16.60;99.90;;;;;;4861586;29;20049;-80
2021/09/01 00:05:23;;;;;;;22.38;5.00;;;16.70;99.90;;;;;;4861116;29;20037;-80
2021/09/01 00:07:49;;;;;;;16.23;5.28;;;16.60;99.90;;;;;;4860441;29;20103;-80
2021/09/01 00:10:15;;;;;;;24.20;5.57;;;16.60;99.90;;;;;;4876623;29;20397;-80
2021/09/01 00:12:42;;;;;;;22.00;5.55;;;16.60;99.90;;;;;;4861382;29;20048;-80
2021/09/01 00:15:09;;;;;;;14.82;5.10;;;16.60;99.90;;;;;;4846049;29;20053;-80
2021/09/01 00:17:37;;;;;;;25.10;5.82;;;16.60;99.90;;;;;;4845721;29;20570;-80
2021/09/01 00:20:06;;;;;;;25.15;5.60;;;16.60;99.90;;;;;;4856171;29;20057;-80
2021/09/01 00:22:32;;;;;;;17.25;4.43;;;16.60;99.90;;;;;;4858161;29;20061;-80
2021/09/01 00:24:58;;;;;;;19.52;4.82;;;16.60;99.90;;;;;;4860564;29;20053;-80
2021/09/01 00:27:24;;;;;;;20.33;5.22;;;16.60;99.90;;;;;;4861163;29;20049;-80
2021/09/01 00:29:50;;;;;;;22.58;5.60;;;16.60;99.90;;;;;;4861994;29;20074;-80
2021/09/01 00:32:15;;;;;;;18.95;5.05;;;16.60;99.90;;;;;;4844780;29;20054;-80
2021/09/01 00:34:41;;;;;;;22.58;5.05;;;16.60;99.90;;;;;;4860858;29;20132;-80
2021/09/01 00:37:07;;;;;;;22.90;5.20;;;16.60;99.90;;;;;;4860495;29;20406;-80
2021/09/01 00:39:32;;;;;;;18.40;5.40;;;16.60;99.90;;;;;;4859807;29;20049;-80
2021/09/01 00:42:08;;;;;;;24.65;5.32;;;16.60;99.90;;;;;;4842556;29;20046;-80
2021/09/01 00:44:34;;;;;;;22.48;5.03;;;16.60;99.90;;;;;;4861619;29;20053;-80
2021/09/01 00:46:59;;;;;;;20.42;5.00;;;16.60;99.90;;;;;;4861120;29;20487;-81
2021/09/01 00:49:29;;;;;;;19.95;4.97;;;16.60;99.90;;;;;;4860436;29;20049;-82
2021/09/01 00:51:56;;;;;;;23.38;5.57;;;16.60;99.90;;;;;;4860897;29;20049;-82
2021/09/01 00:54:24;;;;;;;17.48;5.40;;;16.60;99.90;;;;;;4859327;29;20049;-82
2021/09/01 00:56:53;;;;;;;14.50;4.50;;;16.50;99.90;;;;;;4860653;29;20109;-82
2021/09/01 00:59:20;;;;;;;23.48;5.55;;;16.50;99.90;;;;;;4860454;29;20439;-82
2021/09/01 01:01:49;;;;;;;20.13;4.95;;;16.70;99.90;;;;;;4861519;29;20063;-82
2021/09/01 01:04:15;;;;;;;18.48;4.93;;;16.50;99.90;;;;;;4854352;29;20044;-82
2021/09/01 01:06:41;;;;;;;20.33;5.05;;;16.50;99.90;;;;;;4859256;29;20398;-82
2021/09/01 01:09:08;;;;;;;17.60;5.35;;;16.60;99.90;;;;;;4860566;29;20045;-82
2021/09/01 01:11:34;;;;;;;21.58;5.20;;;16.50;99.90;;;;;;4858606;29;20065;-82
2021/09/01 01:14:00;;;;;;;27.85;5.60;;;16.50;99.90;;;;;;4860083;29;20081;-82
2021/09/01 01:16:26;;;;;;;21.42;5.88;;;16.50;99.90;;;;;;4845038;29;20041;-82
2021/09/01 01:18:54;;;;;;;20.63;5.20;;;16.50;99.90;;;;;;4860445;29;20490;-82
2021/09/01 01:21:23;;;;;;;22.45;5.45;;;16.50;99.90;;;;;;4860284;29;20041;-82
2021/09/01 01:24:02;;;;;;;22.67;5.57;;;16.50;99.90;;;;;;4859370;29;20510;-82
2021/09/01 01:26:30;;;;;;;26.77;6.25;;;16.50;99.90;;;;;;4856139;29;20210;-82
2021/09/01 01:29:09;;;;;;;27.35;6.05;;;16.50;99.90;;;;;;4859963;29;20132;-82
2021/09/01 01:31:38;;;;;;;23.80;5.90;;;16.60;99.90;;;;;;4859606;29;20058;-82
2021/09/01 01:34:10;;;;;;;18.73;5.38;;;16.50;99.90;;;;;;4859630;29;20042;-82
2021/09/01 01:36:36;;;;;;;26.02;5.93;;;16.50;99.90;;;;;;4844941;29;20128;-82
2021/09/01 01:39:02;;;;;;;20.35;5.00;;;16.50;99.90;;;;;;4859760;29;20529;-82
2021/09/01 01:41:27;;;;;;;18.02;4.93;;;16.50;99.90;;;;;;4859993;29;20055;-82
2021/09/01 01:43:53;;;;;;;20.58;5.25;;;16.40;99.90;;;;;;4857981;29;20076;-82
2021/09/01 01:46:22;;;;;;;20.95;4.93;;;16.40;99.90;;;;;;4859877;29;20112;-82
2021/09/01 01:48:49;;;;;;;18.92;5.28;;;16.40;99.90;;;;;;4859428;29;20136;-82
2021/09/01 01:51:15;;;;;;;18.63;5.25;;;16.40;99.90;;;;;;4859693;29;20533;-82
2021/09/01 01:53:41;;;;;;;22.98;5.32;;;16.50;99.90;;;;;;4858704;29;20178;-82
2021/09/01 01:56:06;;;;;;;16.80;5.32;;;16.40;99.90;;;;;;4859567;29;20045;-82
2021/09/01 01:58:32;;;;;;;21.48;6.30;;;16.50;99.90;;;;;;4859192;29;20060;-81
2021/09/01 02:00:58;;;;;;;25.27;5.70;;;16.40;99.90;;;;;;4858246;29;20053;-82
2021/09/01 02:03:23;;;;;;;21.50;5.38;;;16.40;99.90;;;;;;4860334;29;20502;-81
2021/09/01 02:05:49;;;;;;;18.63;5.05;;;16.40;99.90;;;;;;4859407;29;20151;-81
2021/09/01 02:08:15;;;;;;;19.23;4.82;;;16.40;99.90;;;;;;4859481;29;20174;-82
2021/09/01 02:10:40;;;;;;;22.48;5.07;;;16.40;99.90;;;;;;4841295;29;20050;-81
2021/09/01 02:13:07;;;;;;;16.70;5.15;;;16.40;99.90;;;;;;4859493;29;20504;-81
2021/09/01 02:15:33;;;;;;;16.13;4.40;;;16.40;99.90;;;;;;4860315;29;20045;-81
2021/09/01 02:18:01;;;;;;;16.48;4.57;;;16.40;99.90;;;;;;4857755;29;20078;-82
2021/09/01 02:20:27;;;;;;;20.30;4.53;;;16.40;99.90;;;;;;4844130;29;20072;-82
2021/09/01 02:22:53;;;;;;;16.38;5.30;;;16.40;99.90;;;;;;4858974;29;20133;-82
2021/09/01 02:25:18;;;;;;;20.67;5.78;;;16.40;99.90;;;;;;4858276;29;20051;-82
2021/09/01 02:27:44;;;;;;;18.33;4.65;;;16.40;99.90;;;;;;4859279;29;20049;-82
2021/09/01 02:30:12;;;;;;;23.10;4.75;;;16.50;99.90;;;;;;4858450;29;20077;-81
2021/09/01 02:32:38;;;;;;;17.02;5.32;;;16.40;99.90;;;;;;4859170;29;20101;-82
2021/09/01 02:35:04;;;;;;;16.75;4.78;;;16.40;99.90;;;;;;4858830;29;20437;-81
2021/09/01 02:37:30;;;;;;;19.60;4.85;;;16.40;99.90;;;;;;4832375;29;20057;-82
2021/09/01 02:39:55;;;;;;;14.32;4.75;;;16.40;99.90;;;;;;4859083;29;20045;-82
2021/09/01 02:42:21;;;;;;;17.60;4.80;;;16.40;99.90;;;;;;4858520;29;20033;-82
2021/09/01 02:44:47;;;;;;;21.92;4.95;;;16.40;99.90;;;;;;4858969;29;20046;-81
2021/09/01 02:47:12;;;;;;;15.80;4.63;;;16.30;99.90;;;;;;4843254;29;20410;-82
2021/09/01 02:49:38;;;;;;;19.27;5.65;;;16.40;99.90;;;;;;4843268;29;20045;-81
2021/09/01 02:52:04;;;;;;;18.45;5.10;;;16.40;99.90;;;;;;4858388;29;20042;-82
2021/09/01 02:54:30;;;;;;;19.00;4.88;;;16.40;99.90;;;;;;4843245;29;20045;-82
2021/09/01 02:56:55;;;;;;;23.83;5.35;;;16.40;99.90;;;;;;4861697;29;20037;-79
2021/09/01 02:59:21;;;;;;;15.88;5.07;;;16.40;99.90;;;;;;4862585;29;20435;-79
2021/09/01 03:01:47;;;;;;;16.65;5.00;;;16.40;99.90;;;;;;4862741;29;20398;-79
2021/09/01 03:04:12;;;;;;;18.33;5.78;;;16.40;99.90;;;;;;4862019;29;20177;-79
2021/09/01 03:06:38;;;;;;;21.83;4.72;;;16.50;99.90;;;;;;4862651;29;20053;-79
2021/09/01 03:09:04;;;;;;;17.77;6.30;;;16.40;99.90;;;;;;4845872;29;20483;-79
2021/09/01 03:11:29;;;;;;;24.25;6.25;;;16.40;99.90;;;;;;4843948;29;20056;-79
2021/09/01 03:13:55;;;;;;;18.15;4.82;;;16.40;99.90;;;;;;4862792;29;20128;-79
2021/09/01 03:16:21;;;;;;;16.42;4.95;;;16.40;99.90;;;;;;4863094;29;20037;-79
2021/09/01 03:18:46;;;;;;;21.65;5.40;;;16.40;99.90;;;;;;4862175;29;20050;-79
2021/09/01 03:21:12;;;;;;;14.60;4.40;;;16.40;99.90;;;;;;4831146;29;20034;-79
2021/09/01 03:23:38;;;;;;;15.25;4.85;;;16.40;99.90;;;;;;4862057;29;20121;-79
2021/09/01 03:26:04;;;;;;;18.75;4.72;;;16.30;99.90;;;;;;4860356;29;20136;-79
2021/09/01 03:28:30;;;;;;;18.33;4.88;;;16.40;99.90;;;;;;4846431;29;20066;-81
2021/09/01 03:30:55;;;;;;;20.27;4.95;;;16.40;99.90;;;;;;4846701;29;20045;-81
2021/09/01 03:33:21;;;;;;;20.23;4.80;;;16.30;99.90;;;;;;4863531;29;20057;-81
2021/09/01 03:35:49;;;;;;;22.10;4.88;;;16.40;99.90;;;;;;4846771;29;20109;-82
2021/09/01 03:38:15;;;;;;;13.88;4.55;;;16.30;99.90;;;;;;4846710;29;20049;-82
2021/09/01 03:40:41;;;;;;;15.32;5.05;;;16.40;99.90;;;;;;4845940;29;20406;-82
2021/09/01 03:43:07;;;;;;;20.05;5.10;;;16.30;99.90;;;;;;4861856;29;20042;-81
2021/09/01 03:45:33;;;;;;;25.77;5.60;;;16.30;99.90;;;;;;4846097;29;20105;-82
2021/09/01 03:47:58;;;;;;;14.60;5.00;;;16.40;99.90;;;;;;4861363;29;20053;-82
2021/09/01 03:50:24;;;;;;;22.63;5.07;;;16.40;99.90;;;;;;4845930;29;20050;-82
2021/09/01 03:52:50;;;;;;;14.80;4.63;;;16.30;99.90;;;;;;4864368;29;20045;-82
2021/09/01 03:55:16;;;;;;;19.90;5.07;;;16.30;99.90;;;;;;4846556;29;20049;-82
2021/09/01 03:57:41;;;;;;;20.00;5.22;;;16.40;99.90;;;;;;4844530;29;20089;-81
2021/09/01 04:00:09;;;;;;;21.88;5.18;;;16.40;99.90;;;;;;4830799;29;20056;-82
2021/09/01 04:02:35;;;;;;;20.17;5.28;;;16.40;99.90;;;;;;4830237;29;20379;-82
2021/09/01 04:05:00;;;;;;;12.82;4.45;;;16.40;99.90;;;;;;4845829;29;20053;-81
2021/09/01 04:07:26;;;;;;;14.88;4.88;;;16.30;99.90;;;;;;4829835;29;20049;-81
2021/09/01 04:09:52;;;;;;;20.55;4.95;;;16.40;99.90;;;;;;4845732;29;20045;-82
2021/09/01 04:12:17;;;;;;;22.30;5.30;;;16.40;99.90;;;;;;4875449;29;20053;-81
2021/09/01 04:14:43;;;;;;;19.42;5.18;;;16.40;99.90;;;;;;4827846;29;20141;-82
2021/09/01 04:17:09;;;;;;;20.02;5.32;;;16.40;99.90;;;;;;4837037;29;20056;-82
2021/09/01 04:19:36;;;;;;;23.75;5.03;;;16.40;99.90;;;;;;4844987;29;20061;-82
2021/09/01 04:22:03;;;;;;;27.55;5.53;;;16.40;99.90;;;;;;4846120;29;20069;-81
2021/09/01 04:24:29;;;;;;;19.73;4.70;;;16.40;99.90;;;;;;4862340;29;20041;-81
2021/09/01 04:26:54;;;;;;;15.90;4.70;;;16.40;99.90;;;;;;4845536;29;20044;-81
2021/09/01 04:29:20;;;;;;;19.33;5.07;;;16.30;99.90;;;;;;4844258;29;20060;-81
2021/09/01 04:31:46;;;;;;;20.23;5.03;;;16.40;99.90;;;;;;4861694;29;20040;-81
2021/09/01 04:34:11;;;;;;;16.50;5.10;;;16.40;99.90;;;;;;4829978;29;20069;-81
2021/09/01 04:36:37;;;;;;;17.40;4.88;;;16.30;99.90;;;;;;4862361;29;20044;-81
2021/09/01 04:39:03;;;;;;;12.00;4.57;;;16.30;99.90;;;;;;4815162;29;20046;-82
2021/09/01 04:41:29;;;;;;;16.23;4.70;;;16.40;99.90;;;;;;4860911;29;20052;-82
2021/09/01 04:43:54;;;;;;;17.02;5.07;;;16.30;99.90;;;;;;4830064;29;20046;-81
2021/09/01 04:46:20;;;;;;;17.83;4.80;;;16.30;99.90;;;;;;4844520;29;20045;-81
2021/09/01 04:48:46;;;;;;;18.95;4.60;;;16.30;99.90;;;;;;4876360;29;20045;-81
2021/09/01 04:51:11;;;;;;;15.93;5.70;;;16.30;99.90;;;;;;4845185;29;20553;-81
2021/09/01 04:53:37;;;;;;;13.70;4.72;;;16.30;99.90;;;;;;4827352;29;20510;-81
2021/09/01 04:56:03;;;;;;;16.70;4.22;;;16.30;99.90;;;;;;4859956;29;20072;-81
2021/09/01 04:58:29;;;;;;;19.40;5.15;;;16.30;99.90;;;;;;4845095;29;20056;-81
2021/09/01 05:00:54;;;;;;;16.38;5.55;;;16.30;99.90;;;;;;4844204;29;20080;-81
2021/09/01 05:03:20;;;;;;;13.35;5.05;;;16.20;99.90;;;;;;4860471;29;20443;-81
2021/09/01 05:05:46;;;;;;;18.77;5.20;;;16.30;99.90;;;;;;4844960;29;20049;-81
2021/09/01 05:08:11;;;;;;;20.20;4.82;;;16.30;99.90;;;;;;4844597;29;20076;-80
2021/09/01 05:10:40;;;;;;;18.15;5.18;;;16.30;99.90;;;;;;4844783;29;20041;-80
2021/09/01 05:13:06;;;;;;;20.95;5.50;;;16.30;99.90;;;;;;4861667;29;20419;-80
2021/09/01 05:15:32;;;;;;;20.33;5.32;;;16.30;99.90;;;;;;4844884;29;20045;-80
2021/09/01 05:17:57;;;;;;;23.15;5.32;;;16.30;99.90;;;;;;4859654;29;20049;-79
2021/09/01 05:20:24;;;;;;;18.38;5.10;;;16.30;99.90;;;;;;4860182;29;20046;-81
2021/09/01 05:22:58;;;;;;;19.67;4.88;;;16.30;99.90;;;;;;4861186;29;20061;-81
2021/09/01 05:25:25;;;;;;;12.50;4.75;;;16.30;99.90;;;;;;4844656;29;20081;-81
2021/09/01 05:27:51;;;;;;;17.42;4.50;;;16.30;99.90;;;;;;4861089;29;20046;-81
2021/09/01 05:30:18;;;;;;;20.48;4.85;;;16.40;99.90;;;;;;4844633;29;20124;-81
2021/09/01 05:32:47;;;;;;;16.58;5.00;;;16.30;99.90;;;;;;4844109;29;20049;-81
2021/09/01 05:35:13;;;;;;;21.98;5.43;;;16.30;99.90;;;;;;4844386;29;20053;-81
2021/09/01 05:37:40;;;;;;;16.17;4.80;;;16.30;99.90;;;;;;4860717;29;20033;-81
2021/09/01 05:40:08;;;;;;;15.50;5.07;;;16.20;99.90;;;;;;4860688;29;20513;-81
2021/09/01 05:42:34;;;;;;;14.48;5.15;;;16.30;99.90;;;;;;4844470;29;20082;-81
2021/09/01 05:45:02;;;;;;;19.63;4.85;;;16.30;99.90;;;;;;4859216;29;20041;-81
2021/09/01 05:47:28;;;;;;;15.32;5.50;;;16.30;99.90;;;;;;4844131;29;20060;-81
2021/09/01 05:49:56;;;;;;;19.70;4.90;;;16.30;99.90;;;;;;4828598;29;20053;-84
2021/09/01 05:52:22;;;;;;;17.98;5.05;;;16.30;99.90;;;;;;4841662;29;20137;-77
2021/09/01 05:54:50;;;;;;;21.40;5.78;;;16.30;99.90;;;;;;4821678;29;20502;-79
2021/09/01 05:57:32;;;;;;;18.35;5.38;;;16.30;99.90;;;;;;4837346;29;20052;-83
2021/09/01 06:00:07;;;;;;;22.63;5.53;;;16.30;99.90;;;;;;4841682;29;20056;-83
2021/09/01 06:02:53;;;;;;;16.42;4.93;;;16.30;99.90;;;;;;4841354;29;20113;-82
2021/09/01 06:05:21;;;;;;;20.55;5.00;;;16.40;99.90;;;;;;4859348;29;20033;-82
2021/09/01 06:07:58;;;;;;;15.38;4.75;;;16.30;99.90;;;;;;4844896;29;20499;-83
2021/09/01 06:10:28;;;;;;;21.25;5.53;;;16.40;99.90;;;;;;4861272;29;20091;-81
2021/09/01 06:12:56;;;;;;;17.00;4.70;;;16.40;99.90;;;;;;4843635;29;20116;-78
2021/09/01 06:15:23;;;;;;;18.25;5.40;;;16.40;99.90;;;;;;4851920;29;20390;-78
2021/09/01 06:17:49;;;;;;;23.67;5.40;;;16.40;99.90;;;;;;4823404;29;20037;-78
2021/09/01 06:20:15;;;;;;;18.63;5.00;;;16.40;99.90;;;;;;4857049;29;20060;-78
2021/09/01 06:22:41;;;;;;;25.40;6.03;;;16.40;99.90;;;;;;4843021;29;20061;-78
2021/09/01 06:25:09;;;;;;;16.75;5.70;;;16.40;99.90;;;;;;4816278;29;20498;-78
2021/09/01 06:27:35;;;;;;;20.48;5.30;;;16.40;99.90;;;;;;4857693;29;20132;-78
2021/09/01 06:30:00;;;;;;;22.73;5.65;;;16.50;99.90;;;;;;4842773;29;20504;-78
2021/09/01 06:32:26;;;;;;;23.05;5.63;;;16.50;99.90;;;;;;4854688;29;20046;-78
2021/09/01 06:34:52;;;;;;;23.20;5.75;;;16.50;99.90;;;;;;4841559;29;20049;-78
2021/09/01 06:37:17;;;;;;;21.23;5.68;;;16.50;99.90;;;;;;4852541;29;20129;-78
2021/09/01 06:39:43;;;;;;;23.02;6.00;;;16.50;99.90;;;;;;4843085;29;20053;-78
2021/09/01 06:42:11;;;;;;;20.52;6.38;;;16.50;99.90;;;;;;4853854;29;20125;-78
2021/09/01 06:44:37;;;;;;;22.58;5.00;;;16.50;99.90;;;;;;4845410;29;20053;-78
2021/09/01 06:47:04;;;;;;;22.80;5.10;;;16.50;99.90;;;;;;4838636;29;20089;-78
2021/09/01 06:49:30;;;;;;;19.83;5.00;;;16.50;99.90;;;;;;4842937;29;20548;-78
2021/09/01 06:51:56;;;;;;;18.15;5.68;;;16.60;99.90;;;;;;4817104;29;20391;-78
2021/09/01 06:54:24;;;;;;;21.15;5.55;;;16.60;99.90;;;;;;4859324;29;20037;-78
2021/09/01 06:56:50;;;;;;;18.42;5.18;;;16.60;99.90;;;;;;4833463;29;20376;-78
2021/09/01 06:59:16;;;;;;;20.25;5.15;;;16.60;99.90;;;;;;4841183;29;20052;-77
2021/09/01 07:01:41;;;;;;;18.88;5.90;;;16.70;99.90;;;;;;4835170;29;20049;-84
2021/09/01 07:04:07;;;;;;;19.02;5.22;;;16.60;99.90;;;;;;4825257;29;20050;-77
2021/09/01 07:06:33;;;;;;;21.73;5.78;;;16.60;99.90;;;;;;4822584;29;20045;-78
2021/09/01 07:08:58;;;;;;;16.83;5.28;;;16.60;99.90;;;;;;4843195;29;20429;-77
2021/09/01 07:11:27;;;;;;;20.08;5.40;;;16.70;99.90;;;;;;4832978;29;20042;-78
2021/09/01 07:13:53;;;;;;;18.58;5.05;;;16.70;99.90;;;;;;4817278;29;20046;-84
2021/09/01 07:16:18;;;;;;;21.67;5.47;;;16.70;99.90;;;;;;4831203;29;20438;-85
2021/09/01 07:18:44;;;;;;;23.02;5.60;;;16.80;99.90;;;;;;4826685;29;20052;-86
2021/09/01 07:21:42;;;;;;;20.75;5.45;;;16.80;99.90;;;;;;4828226;29;20069;-88
2021/09/01 07:24:09;;;;;;;16.20;5.47;;;16.90;99.90;;;;;;4858838;29;20462;-87
2021/09/01 07:26:35;;;;;;;18.30;5.13;;;16.70;99.90;;;;;;4883327;29;20489;-83
2021/09/01 07:29:04;;;;;;;21.98;5.47;;;16.80;99.90;;;;;;4830980;29;20045;-85
2021/09/01 07:31:31;;;;;;;16.48;5.00;;;16.80;99.90;;;;;;4851364;29;20379;-82
2021/09/01 07:34:00;;;;;;;20.25;5.30;;;16.80;99.90;;;;;;4809826;29;20164;-83
2021/09/01 07:36:26;;;;;;;18.00;5.28;;;16.80;99.90;;;;;;4856279;29;20060;-83
2021/09/01 07:38:54;;;;;;;18.27;5.40;;;16.80;99.90;;;;;;4858487;29;20041;-83
2021/09/01 07:41:20;;;;;;;15.88;5.07;;;16.70;99.90;;;;;;4811654;29;20093;-83
2021/09/01 07:43:45;;;;;;;23.48;5.72;;;16.80;99.90;;;;;;4824292;29;20077;-80
2021/09/01 07:46:11;;;;;;;17.95;5.65;;;16.80;99.90;;;;;;4835312;29;20038;-84
2021/09/01 07:48:42;;;;;;;22.92;5.30;;;16.80;99.90;;;;;;4821593;29;20053;-84
2021/09/01 07:51:10;;;;;;;20.70;5.07;;;16.80;99.90;;;;;;4877006;29;20448;-84
2021/09/01 07:53:36;;;;;;;15.80;4.72;;;16.90;99.90;;;;;;4842744;29;20053;-83
2021/09/01 07:56:02;;;;;;;18.30;4.80;;;16.90;99.90;;;;;;4843973;29;20045;-83
2021/09/01 07:58:28;;;;;;;19.85;5.63;;;16.90;99.90;;;;;;4842406;29;20109;-83
2021/09/01 08:00:54;;;;;;;19.17;5.93;;;16.90;99.90;;;;;;4843261;29;20049;-83
2021/09/01 08:03:19;;;;;;;15.98;5.05;;;16.90;99.90;;;;;;4873914;29;20128;-83
2021/09/01 08:05:46;;;;;;;18.70;5.15;;;16.90;99.90;;;;;;4842336;29;20034;-83
2021/09/01 08:08:12;;;;;;;17.35;5.05;;;16.90;99.90;;;;;;4845029;29;20049;-83
2021/09/01 08:10:37;;;;;;;15.93;5.40;;;17.00;99.90;;;;;;4858111;29;20110;-83
2021/09/01 08:13:03;;;;;;;16.98;5.15;;;17.00;99.90;;;;;;4842715;29;20109;-83
2021/09/01 08:15:29;;;;;;;19.23;5.30;;;17.00;99.90;;;;;;4843054;29;20069;-79
2021/09/01 08:17:55;;;;;;;21.10;5.63;;;17.00;99.90;;;;;;4859047;29;20149;-77
2021/09/01 08:20:23;;;;;;;17.73;5.28;;;17.00;99.90;;;;;;4839922;29;20054;-76
2021/09/01 08:22:49;;;;;;;22.92;5.25;;;17.00;99.90;;;;;;4856217;29;20559;-77
2021/09/01 08:25:15;;;;;;;15.65;6.20;;;17.00;99.90;;;;;;4810267;29;20128;-81
2021/09/01 08:27:45;;;;;;;17.13;5.13;;;17.00;99.90;;;;;;4829453;29;20387;-81
2021/09/01 08:30:11;;;;;;;20.83;5.40;;;16.90;99.90;;;;;;4856434;29;20037;-82
2021/09/01 08:32:37;;;;;;;22.42;4.80;;;17.10;99.90;;;;;;4834224;29;20486;-79
2021/09/01 08:35:03;;;;;;;24.33;5.38;;;17.00;99.90;;;;;;4859274;29;20037;-79
2021/09/01 08:37:29;;;;;;;19.80;5.60;;;17.10;99.90;;;;;;4855404;29;20432;-79
2021/09/01 08:39:55;;;;;;;24.58;5.03;;;17.10;99.90;;;;;;4860205;29;20046;-79
2021/09/01 08:42:22;;;;;;;20.27;5.35;;;17.10;99.90;;;;;;4855600;29;20109;-78
2021/09/01 08:44:48;;;;;;;23.42;5.35;;;17.10;99.90;;;;;;4862943;29;20053;-78
2021/09/01 08:47:16;;;;;;;21.90;5.50;;;17.10;99.90;;;;;;4846774;29;20045;-78
2021/09/01 08:49:46;;;;;;;20.17;5.20;;;17.00;99.90;;;;;;4872820;29;20113;-78
2021/09/01 08:52:13;;;;;;;20.13;5.50;;;17.10;99.90;;;;;;4850046;29;20048;-78
2021/09/01 08:54:39;;;;;;;19.55;5.10;;;17.20;99.90;;;;;;4844664;29;20045;-78
2021/09/01 08:57:05;;;;;;;20.67;6.00;;;17.20;99.90;;;;;;4832132;29;20056;-78
2021/09/01 08:59:30;;;;;;;22.52;5.70;;;17.30;99.90;;;;;;4828853;29;20045;-78
2021/09/01 09:01:56;;;;;;;18.88;5.00;;;17.30;99.90;;;;;;4875826;29;20045;-78
2021/09/01 09:04:32;;;;;;;19.98;5.20;;;17.30;99.90;;;;;;4845149;29;20044;-78
2021/09/01 09:07:00;;;;;;;22.55;5.38;;;17.40;99.90;;;;;;4860608;29;20056;-78
2021/09/01 09:09:38;;;;;;;20.48;5.45;;;17.40;99.90;;;;;;4844851;29;20153;-78
2021/09/01 09:12:08;;;;;;;16.90;5.10;;;17.40;99.90;;;;;;4827980;29;20056;-83
2021/09/01 09:15:24;;;;;;;19.95;5.22;;;17.50;99.90;;;;;;4855488;29;20048;-87
2021/09/01 09:30:47;;;;;;;23.65;5.72;;;17.60;99.90;;;;;;4796111;29;20054;-87
2021/09/01 09:33:24;;;;;;;21.45;4.97;;;17.60;99.90;;;;;;4792251;29;20037;-92
2021/09/01 09:35:53;;;;;;;15.57;4.88;;;17.60;99.90;;;;;;4862472;29;20053;-92
2021/09/01 09:38:37;;;;;;;21.83;5.07;;;17.60;99.90;;;;;;4860767;29;20053;-85
2021/09/01 09:41:06;;;;;;;15.80;4.57;;;17.60;99.90;;;;;;4857885;29;20038;-85
2021/09/01 09:43:44;;;;;;;16.27;4.90;;;17.40;99.90;;;;;;4841209;29;20118;-88
2021/09/01 09:46:11;;;;;;;17.55;4.95;;;17.60;99.90;;;;;;4855379;29;20125;-78
2021/09/01 09:48:39;;;;;;;20.25;4.15;;;17.60;99.90;;;;;;4857117;29;20084;-79
2021/09/01 09:51:08;;;;;;;17.50;4.75;;;17.70;99.90;;;;;;4857111;29;20038;-79
2021/09/01 09:53:49;;;;;;;15.93;4.40;;;17.70;99.90;;;;;;4856252;29;20428;-78
2021/09/01 09:56:25;;;;;;;14.93;4.15;;;17.70;99.90;;;;;;4856897;29;20068;-78
2021/09/01 09:58:57;;;;;;;15.80;5.20;;;17.80;99.90;;;;;;4859309;29;20116;-78
2021/09/01 10:01:25;;;;;;;18.75;4.97;;;17.80;99.90;;;;;;4857043;29;20744;-78
2021/09/01 10:03:52;;;;;;;17.58;5.10;;;17.80;99.90;;;;;;4858057;29;20041;-85
2021/09/01 10:06:19;;;;;;;19.55;4.65;;;17.90;99.90;;;;;;4827098;29;20042;-78
2021/09/01 10:08:55;;;;;;;14.25;4.55;;;17.90;99.90;;;;;;4843754;29;20056;-78
2021/09/01 10:11:21;;;;;;;;;;;17.90;99.90;;;;;;4833993;29;20110;-78
2021/09/01 10:13:49;;;;;;;15.93;4.53;;;18.00;99.90;;;;;;4850785;29;20380;-78
2021/09/01 10:16:21;;;;;;;16.05;4.85;;;18.00;99.90;;;;;;4844185;29;20065;-77
2021/09/01 10:18:52;;;;;;;19.95;5.32;;;18.00;99.90;;;;;;4859269;29;20045;-78
2021/09/01 10:21:19;;;;;;;20.08;5.28;;;18.00;99.90;;;;;;4857867;29;20046;-77
2021/09/01 10:23:46;;;;;;;21.95;4.80;;;18.20;99.90;;;;;;4841945;29;20079;-84
2021/09/01 10:26:30;;;;;;;17.05;5.07;;;18.00;99.90;;;;;;4843249;29;20144;-78
2021/09/01 10:28:59;;;;;;;15.77;4.68;;;18.00;99.90;;;;;;4858321;29;20154;-78
2021/09/01 10:31:35;;;;;;;21.73;5.13;;;18.00;99.90;;;;;;4836364;29;20076;-84
2021/09/01 10:34:17;;;;;;;;;;;18.00;99.90;;;;;;4867288;29;20049;-78
2021/09/01 10:36:54;;;;;;;18.20;4.57;;;17.90;99.90;;;;;;4858752;29;19927;-78
2021/09/01 10:39:29;;;;;;;15.77;4.30;;;17.90;99.90;;;;;;4840727;29;20125;-78
2021/09/01 10:41:54;;;;;;;12.48;4.53;;;17.70;99.90;;;;;;4853614;29;20041;-78
2021/09/01 10:44:41;;;;;;;15.40;4.10;;;17.90;99.90;;;;;;4841789;29;20049;-78
2021/09/01 10:47:07;;;;;;;14.82;4.15;;;17.90;99.90;;;;;;4828478;29;20095;-78
2021/09/01 10:49:57;;;;;;;16.00;4.57;;;17.90;99.90;;;;;;4853982;29;20120;-84
2021/09/01 10:52:23;;;;;;;14.38;4.28;;;17.90;99.90;;;;;;4834386;29;20046;-84
2021/09/01 10:54:51;;;;;;;16.95;5.00;;;17.90;99.90;;;;;;4815634;29;20394;-78
2021/09/01 10:57:23;;;;;;;14.38;4.20;;;17.90;99.90;;;;;;4838628;29;20041;-84
2021/09/01 10:59:49;;;;;;;13.75;4.35;;;17.90;99.90;;;;;;4852601;29;20050;-84
2021/09/01 11:02:20;;;;;;;15.95;4.88;;;17.90;99.90;;;;;;4868582;29;20387;-78
2021/09/01 11:04:58;;;;;;;14.02;4.35;;;17.90;99.90;;;;;;4846260;29;20458;-85
2021/09/01 11:07:31;;;;;;;13.35;4.22;;;17.90;99.90;;;;;;4842254;29;20055;-84
2021/09/01 11:09:58;;;;;;;18.73;4.13;;;18.50;99.90;;;;;;4846880;29;20049;-84
2021/09/01 11:12:25;;;;;;;14.55;4.55;;;18.00;99.90;;;;;;4858882;29;20041;-78
2021/09/01 11:14:52;;;;;;;14.93;4.30;;;18.00;99.90;;;;;;4828387;29;20037;-78
2021/09/01 11:17:20;;;;;;;13.35;4.22;;;18.00;99.90;;;;;;4876124;29;20080;-78
2021/09/01 11:19:51;;;;;;;13.38;4.13;;;18.00;99.90;;;;;;4865933;29;20059;-78
2021/09/01 11:22:31;;;;;;;16.15;4.53;;;18.00;99.90;;;;;;4843746;29;20149;-84
2021/09/01 11:25:01;;;;;;;12.73;4.03;;;18.00;99.90;;;;;;4850717;29;20543;-78
2021/09/01 11:27:28;;;;;;;11.25;4.03;;;18.10;99.90;;;;;;4862614;29;20052;-78
2021/09/01 11:30:15;;;;;;;12.88;4.32;;;18.10;99.90;;;;;;4858801;29;20057;-78
2021/09/01 11:32:41;;;;;;;18.92;4.00;;;18.10;99.90;;;;;;4828753;29;20042;-84
2021/09/01 11:35:18;;;;;;;12.50;4.28;;;17.90;99.90;;;;;;4872098;29;20049;-78
2021/09/01 11:37:54;;;;;;;18.65;4.20;;;18.10;99.90;;;;;;4860549;29;20132;-84
2021/09/01 11:40:19;;;;;;;;;;;18.20;99.90;;;;;;4863859;29;20057;-78
2021/09/01 11:42:47;;;;;;;;;;;18.10;99.90;;;;;;4844302;29;19920;-78
2021/09/01 11:45:13;;;;;;;12.30;3.83;;;18.10;99.90;;;;;;4856278;29;19927;-78
2021/09/01 11:47:43;;;;;;;14.63;4.22;;;18.00;99.90;;;;;;4868760;29;20044;-84
2021/09/01 11:50:09;;;;;;;16.35;4.55;;;18.10;99.90;;;;;;4854085;29;20045;-84
2021/09/01 11:52:38;;;;;;;12.32;4.57;;;18.10;99.90;;;;;;4858012;29;20045;-83
2021/09/01 11:55:04;;;;;;;11.50;4.50;;;18.10;99.90;;;;;;4848233;29;20042;-78
2021/09/01 11:57:31;;;;;;;20.90;4.90;;;18.20;99.90;;;;;;4830993;29;20486;-84
2021/09/01 11:59:58;;;;;;;15.18;4.78;;;18.10;99.90;;;;;;4861410;29;20248;-84
2021/09/01 12:02:26;;;;;;;13.80;4.22;;;18.10;99.90;;;;;;4846191;29;20041;-78
2021/09/01 12:04:52;;;;;;;18.23;4.25;;;18.10;99.90;;;;;;4877476;29;20077;-84
2021/09/01 12:07:38;;;;;;;13.82;4.20;;;18.20;99.90;;;;;;4861544;29;20528;-84
2021/09/01 12:10:08;;;;;;;23.63;4.68;;;18.20;99.90;;;;;;4854074;29;20042;-84
2021/09/01 12:12:36;;;;;;;14.52;4.78;;;18.20;99.90;;;;;;4856955;29;20041;-78
2021/09/01 12:15:10;;;;;;;14.90;4.55;;;18.20;99.90;;;;;;4844440;29;20083;-88
2021/09/01 12:17:39;;;;;;;13.90;4.13;;;18.20;99.90;;;;;;4855148;29;20550;-85
2021/09/01 12:20:06;;;;;;;20.83;4.68;;;18.20;99.90;;;;;;4843421;29;20189;-80
2021/09/01 12:26:45;;;;;;;15.63;4.45;;;18.20;99.90;;;;;;4826388;29;20061;-89
2021/09/01 12:29:52;;;;;;;11.68;4.18;;;18.10;99.90;;;;;;4843923;29;20128;-85
2021/09/01 12:32:25;;;;;;;15.15;4.00;;;18.10;99.90;;;;;;4817307;29;20084;-84
2021/09/01 12:35:13;;;;;;;13.38;4.30;;;18.00;99.90;;;;;;4865389;29;20042;-83
2021/09/01 12:37:55;;;;;;;13.35;3.92;;;18.10;99.90;;;;;;4847557;29;20120;-82
2021/09/01 12:40:30;;;;;;;15.18;3.95;;;18.10;99.90;;;;;;4841306;29;20400;-87
2021/09/01 12:43:14;;;;;;;15.93;4.32;;;18.20;99.90;;;;;;4825831;29;20144;-82
2021/09/01 12:45:44;;;;;;;13.38;3.92;;;18.20;99.90;;;;;;4841422;29;20043;-88
2021/09/01 12:48:19;;;;;;;12.65;3.75;;;18.20;99.90;;;;;;4840753;29;20101;-82
2021/09/01 12:50:53;;;;;;;15.13;4.95;;;18.10;99.90;;;;;;4854957;29;20132;-82
2021/09/01 12:53:25;;;;;;;15.97;4.33;;;18.20;99.90;;;;;;4839841;29;20050;-82
2021/09/01 12:55:58;;;;;;;11.35;4.00;;;18.20;99.90;;;;;;4824871;29;20050;-83
2021/09/01 12:58:24;;;;;;;12.00;4.43;;;18.20;99.90;;;;;;4856451;29;20045;-83
2021/09/01 13:00:49;;;;;;;10.15;3.90;;;18.20;99.90;;;;;;4841267;29;20037;-90